createdAt,value
2022-11-30T00:01:48.452Z,62.92
2022-11-30T00:06:56.998Z,63.47
2022-11-30T00:12:00.236Z,62.31
2022-11-30T00:17:05.016Z,62.38
2022-11-30T00:22:08.422Z,62.26
2022-11-30T00:27:11.701Z,62.98
2022-11-30T00:32:16.379Z,62.85
2022-11-30T00:37:19.796Z,62.89
2022-11-30T00:42:23.220Z,62.59
2022-11-30T00:47:27.959Z,62.97
2022-11-30T00:52:31.682Z,62.53
2022-11-30T00:57:34.977Z,62.50
2022-11-30T01:02:39.704Z,63.06
2022-11-30T01:07:43.096Z,62.11
2022-11-30T01:12:46.532Z,63.11
2022-11-30T01:17:51.361Z,62.14
2022-11-30T01:22:55.997Z,62.80
2022-11-30T01:27:59.235Z,62.24
2022-11-30T01:33:05.873Z,62.66
2022-11-30T01:38:09.125Z,62.35
2022-11-30T01:43:13.356Z,62.05
2022-11-30T01:48:18.062Z,62.52
2022-11-30T01:53:21.406Z,62.00
2022-11-30T01:58:28.639Z,62.36
2022-11-30T02:03:41.133Z,61.88
2022-11-30T02:08:44.794Z,62.31
2022-11-30T02:14:00.016Z,61.56
2022-11-30T02:19:19.179Z,61.88
2022-11-30T02:24:38.299Z,62.35
2022-11-30T02:29:45.243Z,61.73
2022-11-30T02:34:50.713Z,62.30
2022-11-30T02:39:53.857Z,62.03
2022-11-30T02:44:58.580Z,61.65
2022-11-30T02:50:06.030Z,62.17
2022-11-30T02:55:11.614Z,61.62
2022-11-30T03:00:18.687Z,61.44
2022-11-30T03:05:22.040Z,61.47
2022-11-30T03:10:25.647Z,61.88
2022-11-30T03:15:30.260Z,61.61
2022-11-30T03:20:34.018Z,61.80
2022-11-30T03:25:37.336Z,62.13
2022-11-30T03:30:42.096Z,61.73
2022-11-30T03:35:45.613Z,61.51
2022-11-30T03:40:49.029Z,61.67
2022-11-30T03:45:53.578Z,61.63
2022-11-30T03:50:57.020Z,61.85
2022-11-30T03:56:02.234Z,61.64
2022-11-30T04:01:09.649Z,61.62
2022-11-30T04:06:13.992Z,61.53
2022-11-30T04:11:17.068Z,61.50
2022-11-30T04:16:21.859Z,61.14
2022-11-30T04:21:25.267Z,61.68
2022-11-30T04:26:28.549Z,61.87
2022-11-30T04:31:33.275Z,61.68
2022-11-30T04:36:36.786Z,61.09
2022-11-30T04:41:41.074Z,61.56
2022-11-30T04:46:45.742Z,61.68
2022-11-30T04:51:49.075Z,61.00
2022-11-30T04:56:52.360Z,61.27
2022-11-30T05:01:57.428Z,61.63
2022-11-30T05:07:00.843Z,61.45
2022-11-30T05:12:04.255Z,61.89
2022-11-30T05:17:08.961Z,61.48
2022-11-30T05:22:12.302Z,60.86
2022-11-30T05:27:22.200Z,61.54
2022-11-30T05:32:27.206Z,60.77
2022-11-30T05:37:30.669Z,61.54
2022-11-30T05:42:34.111Z,61.67
2022-11-30T05:47:38.959Z,60.76
2022-11-30T05:52:42.284Z,60.67
2022-11-30T05:57:45.492Z,61.04
2022-11-30T06:02:50.247Z,60.42
2022-11-30T06:07:53.521Z,60.86
2022-11-30T06:12:57.107Z,60.33
2022-11-30T06:18:01.747Z,60.28
2022-11-30T06:23:05.162Z,59.55
2022-11-30T06:28:10.730Z,59.35
2022-11-30T06:33:15.476Z,58.99
2022-11-30T06:38:18.846Z,54.70
2022-11-30T06:43:22.130Z,50.29
2022-11-30T06:48:26.692Z,46.11
2022-11-30T06:53:29.740Z,43.37
2022-11-30T06:58:32.949Z,40.00
2022-11-30T07:03:37.665Z,37.45
2022-11-30T07:08:41.927Z,35.57
2022-11-30T07:13:45.844Z,32.76
2022-11-30T07:18:50.501Z,31.66
2022-11-30T07:24:12.714Z,29.22
2022-11-30T07:29:16.023Z,27.34
2022-11-30T07:34:21.050Z,27.00
2022-11-30T07:39:24.874Z,26.62
2022-11-30T07:44:28.230Z,26.37
2022-11-30T07:49:32.847Z,25.14
2022-11-30T07:54:36.257Z,24.83
2022-11-30T07:59:39.641Z,24.72
2022-11-30T08:04:44.568Z,24.24
2022-11-30T08:09:49.188Z,24.35
2022-11-30T08:15:18.657Z,24.12
2022-11-30T08:20:17.234Z,25.04
2022-11-30T08:25:20.517Z,25.17
2022-11-30T08:30:27.861Z,26.06
2022-11-30T08:35:35.668Z,27.57
2022-11-30T08:40:39.009Z,29.10
2022-11-30T08:45:42.431Z,33.39
2022-11-30T08:50:47.049Z,35.18
2022-11-30T08:55:58.015Z,36.86
2022-11-30T09:01:07.838Z,37.93
2022-11-30T09:06:14.008Z,39.02
2022-11-30T09:11:19.348Z,39.69
2022-11-30T09:16:23.480Z,42.00
2022-11-30T09:21:28.162Z,44.19
2022-11-30T09:26:31.412Z,45.01
2022-11-30T09:31:34.673Z,44.35
2022-11-30T09:36:39.448Z,44.48
2022-11-30T09:42:14.641Z,45.81
2022-11-30T09:47:33.097Z,45.35
2022-11-30T09:52:41.332Z,45.14
2022-11-30T09:57:47.967Z,47.08
2022-11-30T10:02:53.209Z,47.30
2022-11-30T10:08:19.186Z,49.02
2022-11-30T10:13:36.078Z,47.96
2022-11-30T10:18:51.768Z,49.31
2022-11-30T10:24:22.176Z,49.81
2022-11-30T10:29:32.300Z,49.43
2022-11-30T10:34:37.637Z,50.45
2022-11-30T10:39:54.100Z,52.18
2022-11-30T10:45:02.421Z,52.43
2022-11-30T10:50:08.852Z,51.44
2022-11-30T10:55:20.040Z,54.17
2022-11-30T11:00:23.898Z,51.40
2022-11-30T11:05:29.418Z,52.59
2022-11-30T11:10:37.141Z,51.85
2022-11-30T11:15:40.728Z,52.89
2022-11-30T11:20:43.917Z,52.67
2022-11-30T11:25:53.461Z,52.78
2022-11-30T11:30:58.718Z,52.81
2022-11-30T11:36:15.724Z,53.56
2022-11-30T11:41:25.497Z,53.87
2022-11-30T11:46:30.223Z,54.13
2022-11-30T11:51:35.801Z,54.71
2022-11-30T11:56:42.477Z,54.92
2022-11-30T12:01:54.352Z,54.95
2022-11-30T12:07:01.429Z,55.00
2022-11-30T12:12:06.955Z,54.81
2022-11-30T12:17:40.328Z,55.21
2022-11-30T12:23:06.707Z,55.35
2022-11-30T12:28:23.100Z,55.23
2022-11-30T12:33:41.512Z,54.92
2022-11-30T12:38:50.490Z,55.53
2022-11-30T12:44:04.340Z,56.05
2022-11-30T12:49:21.255Z,55.45
2022-11-30T12:54:32.103Z,55.92
2022-11-30T12:59:45.148Z,56.54
2022-11-30T13:04:58.051Z,56.51
2022-11-30T13:10:07.522Z,56.80
2022-11-30T13:15:19.082Z,57.13
2022-11-30T13:20:30.101Z,57.21
2022-11-30T13:31:10.158Z,57.55
2022-11-30T13:36:25.787Z,57.67
2022-11-30T13:41:29.487Z,57.51
2022-11-30T13:46:34.208Z,58.31
2022-11-30T13:51:39.786Z,58.71
2022-11-30T13:56:48.467Z,58.47
2022-11-30T14:07:35.988Z,58.20
2022-11-30T14:13:01.621Z,59.11
2022-11-30T14:18:17.628Z,59.34
2022-11-30T14:23:23.851Z,59.60
2022-11-30T14:28:44.382Z,61.36
2022-11-30T14:33:54.602Z,59.57
2022-11-30T14:38:58.059Z,59.15
2022-11-30T14:44:08.031Z,59.35
2022-11-30T14:49:18.296Z,59.76
2022-11-30T14:54:39.103Z,59.91
2022-11-30T14:59:48.834Z,60.45
2022-11-30T15:04:55.744Z,60.90
2022-11-30T15:10:05.732Z,60.91
2022-11-30T15:15:17.091Z,60.21
2022-11-30T15:20:27.907Z,60.71
2022-11-30T15:25:38.757Z,61.15
2022-11-30T15:30:44.552Z,62.26
2022-11-30T15:41:20.558Z,61.55
2022-11-30T15:46:32.988Z,62.57
2022-11-30T15:51:42.561Z,62.15
2022-11-30T15:56:57.794Z,61.67
2022-11-30T16:02:08.909Z,62.17
2022-11-30T16:07:19.197Z,62.53
2022-11-30T16:12:29.624Z,63.16
2022-11-30T16:17:34.514Z,62.93
2022-11-30T16:22:42.379Z,63.34
2022-11-30T16:27:47.982Z,63.25
2022-11-30T16:32:51.995Z,62.38
2022-11-30T16:37:56.890Z,62.18
2022-11-30T16:43:00.495Z,62.81
2022-11-30T16:48:04.879Z,61.93
2022-11-30T16:53:11.739Z,63.23
2022-11-30T16:58:15.246Z,62.21
2022-11-30T17:03:24.180Z,62.95
2022-11-30T17:08:29.178Z,62.25
2022-11-30T17:13:34.440Z,63.39
2022-11-30T17:18:38.220Z,63.17
2022-11-30T17:23:43.335Z,63.16
2022-11-30T17:28:49.746Z,62.86
2022-11-30T17:33:53.111Z,63.24
2022-11-30T17:38:58.129Z,63.25
2022-11-30T17:44:03.229Z,62.61
2022-11-30T17:49:07.458Z,63.11
2022-11-30T17:54:13.302Z,62.63
2022-11-30T17:59:17.109Z,62.53
2022-11-30T18:04:20.608Z,63.51
2022-11-30T18:09:25.548Z,62.30
2022-11-30T18:14:28.977Z,62.61
2022-11-30T18:19:32.348Z,62.78
2022-11-30T18:24:37.135Z,62.33
2022-11-30T18:29:40.613Z,61.68
2022-11-30T18:34:49.369Z,61.46
2022-11-30T18:39:54.462Z,61.81
2022-11-30T18:44:57.802Z,61.23
2022-11-30T18:50:01.340Z,62.17
2022-11-30T18:55:06.884Z,61.79
2022-11-30T19:00:11.538Z,61.66
2022-11-30T19:05:31.713Z,61.41
2022-11-30T19:10:37.589Z,61.49
2022-11-30T19:15:42.271Z,60.94
2022-11-30T19:20:46.716Z,60.52
2022-11-30T19:25:51.415Z,60.39
2022-11-30T19:30:54.859Z,60.28
2022-11-30T19:36:03.204Z,60.57
2022-11-30T19:41:09.273Z,61.05
2022-11-30T19:46:14.524Z,60.48
2022-11-30T19:51:18.910Z,60.28
2022-11-30T19:56:25.001Z,60.10
2022-11-30T20:01:29.090Z,60.97
2022-11-30T20:06:36.360Z,60.02
2022-11-30T20:11:41.375Z,60.41
2022-11-30T20:16:44.946Z,59.60
2022-11-30T20:21:48.928Z,60.33
2022-11-30T20:26:53.757Z,60.42
2022-11-30T20:31:57.384Z,60.39
2022-11-30T20:37:00.722Z,59.47
2022-11-30T20:42:05.592Z,59.68
2022-11-30T20:47:09.214Z,59.96
2022-11-30T20:52:12.566Z,60.17
2022-11-30T20:57:17.194Z,59.84
2022-11-30T21:02:20.572Z,59.56
2022-11-30T21:07:24.148Z,59.88
2022-11-30T21:12:28.787Z,59.66
2022-11-30T21:17:32.101Z,59.69
2022-11-30T21:22:35.446Z,59.31
2022-11-30T21:27:40.116Z,59.95
2022-11-30T21:32:43.520Z,59.07
2022-11-30T21:37:46.974Z,59.12
2022-11-30T21:42:51.703Z,59.21
2022-11-30T21:47:55.107Z,59.91
2022-11-30T21:52:58.451Z,59.45
2022-11-30T21:58:03.155Z,59.15
2022-11-30T22:03:06.619Z,59.48
2022-11-30T22:08:09.991Z,59.38
2022-11-30T22:13:14.605Z,59.29
2022-11-30T22:18:18.075Z,58.91
2022-11-30T22:23:21.853Z,59.01
2022-11-30T22:28:26.636Z,59.12
2022-11-30T22:33:29.995Z,58.55
2022-11-30T22:38:33.649Z,58.50
2022-11-30T22:43:38.557Z,58.44
2022-11-30T22:48:42.664Z,58.54
2022-11-30T22:53:47.666Z,58.23
2022-11-30T22:58:54.461Z,58.75
2022-11-30T23:04:02.321Z,58.42
2022-11-30T23:09:07.123Z,59.16
2022-11-30T23:14:12.369Z,59.04
2022-11-30T23:19:16.136Z,59.16
2022-11-30T23:24:21.606Z,58.39
2022-11-30T23:29:26.516Z,59.04
2022-11-30T23:34:29.992Z,58.86
2022-11-30T23:39:33.355Z,58.39
2022-11-30T23:44:38.131Z,58.21
2022-11-30T23:49:41.464Z,58.83
2022-11-30T23:54:44.821Z,58.39
2022-11-30T23:59:49.714Z,58.24
